sensor_id;sensor_type;location;lat;lon;timestamp;P1;durP1;ratioP1;P2;durP2;ratioP2
3337;SDS011;1682;49.286;10.788;2023-11-19T00:02:26;7.97;;;5.60;;
3337;SDS011;1682;49.286;10.788;2023-11-19T00:04:53;9.90;;;6.60;;
3337;SDS011;1682;49.286;10.788;2023-11-19T00:07:20;7.17;;;4.93;;
3337;SDS011;1682;49.286;10.788;2023-11-19T00:09:48;6.90;;;5.07;;
3337;SDS011;1682;49.286;10.788;2023-11-19T00:12:15;7.00;;;6.37;;
3337;SDS011;1682;49.286;10.788;2023-11-19T00:14:43;7.70;;;5.77;;
3337;SDS011;1682;49.286;10.788;2023-11-19T00:17:11;8.17;;;6.33;;
3337;SDS011;1682;49.286;10.788;2023-11-19T00:19:39;7.03;;;5.90;;
3337;SDS011;1682;49.286;10.788;2023-11-19T00:22:06;7.50;;;6.30;;
3337;SDS011;1682;49.286;10.788;2023-11-19T00:24:33;10.43;;;6.87;;
3337;SDS011;1682;49.286;10.788;2023-11-19T00:27:01;7.43;;;6.73;;
3337;SDS011;1682;49.286;10.788;2023-11-19T00:29:28;8.10;;;7.40;;
3337;SDS011;1682;49.286;10.788;2023-11-19T00:31:55;11.93;;;8.40;;
3337;SDS011;1682;49.286;10.788;2023-11-19T00:34:22;8.47;;;7.53;;
3337;SDS011;1682;49.286;10.788;2023-11-19T00:36:51;9.40;;;7.77;;
3337;SDS011;1682;49.286;10.788;2023-11-19T00:39:20;8.40;;;6.70;;
3337;SDS011;1682;49.286;10.788;2023-11-19T00:41:47;9.43;;;7.23;;
3337;SDS011;1682;49.286;10.788;2023-11-19T00:44:14;9.80;;;8.40;;
3337;SDS011;1682;49.286;10.788;2023-11-19T00:46:42;8.93;;;8.07;;
3337;SDS011;1682;49.286;10.788;2023-11-19T00:49:09;8.60;;;6.67;;
3337;SDS011;1682;49.286;10.788;2023-11-19T00:51:37;7.50;;;6.80;;
3337;SDS011;1682;49.286;10.788;2023-11-19T00:54:05;8.83;;;5.50;;
3337;SDS011;1682;49.286;10.788;2023-11-19T00:56:32;9.10;;;7.37;;
3337;SDS011;1682;49.286;10.788;2023-11-19T00:59:00;6.00;;;5.40;;
3337;SDS011;1682;49.286;10.788;2023-11-19T01:01:27;8.10;;;6.77;;
3337;SDS011;1682;49.286;10.788;2023-11-19T01:03:55;11.10;;;7.57;;
3337;SDS011;1682;49.286;10.788;2023-11-19T01:06:26;6.53;;;6.00;;
3337;SDS011;1682;49.286;10.788;2023-11-19T01:08:53;7.97;;;6.60;;
3337;SDS011;1682;49.286;10.788;2023-11-19T01:11:23;7.33;;;6.53;;
3337;SDS011;1682;49.286;10.788;2023-11-19T01:13:50;7.03;;;6.37;;
3337;SDS011;1682;49.286;10.788;2023-11-19T01:16:18;8.47;;;7.07;;
3337;SDS011;1682;49.286;10.788;2023-11-19T01:18:46;8.10;;;7.03;;
3337;SDS011;1682;49.286;10.788;2023-11-19T01:21:14;6.27;;;5.67;;
3337;SDS011;1682;49.286;10.788;2023-11-19T01:23:41;7.03;;;6.33;;
3337;SDS011;1682;49.286;10.788;2023-11-19T01:26:09;8.03;;;6.37;;
3337;SDS011;1682;49.286;10.788;2023-11-19T01:28:36;7.40;;;6.13;;
3337;SDS011;1682;49.286;10.788;2023-11-19T01:31:04;6.90;;;6.23;;
3337;SDS011;1682;49.286;10.788;2023-11-19T01:33:33;7.10;;;6.40;;
3337;SDS011;1682;49.286;10.788;2023-11-19T01:36:16;8.30;;;7.50;;
3337;SDS011;1682;49.286;10.788;2023-11-19T01:38:43;9.37;;;7.07;;
3337;SDS011;1682;49.286;10.788;2023-11-19T01:41:10;9.23;;;6.93;;
3337;SDS011;1682;49.286;10.788;2023-11-19T01:43:39;7.33;;;6.63;;
3337;SDS011;1682;49.286;10.788;2023-11-19T01:46:07;8.03;;;6.43;;
3337;SDS011;1682;49.286;10.788;2023-11-19T01:48:36;9.23;;;7.97;;
3337;SDS011;1682;49.286;10.788;2023-11-19T01:51:05;6.87;;;6.00;;
3337;SDS011;1682;49.286;10.788;2023-11-19T01:53:33;8.27;;;7.47;;
3337;SDS011;1682;49.286;10.788;2023-11-19T01:56:01;11.20;;;8.27;;
3337;SDS011;1682;49.286;10.788;2023-11-19T01:58:29;7.20;;;6.50;;
3337;SDS011;1682;49.286;10.788;2023-11-19T02:00:57;11.80;;;7.47;;
3337;SDS011;1682;49.286;10.788;2023-11-19T02:03:25;11.33;;;6.90;;
3337;SDS011;1682;49.286;10.788;2023-11-19T02:05:54;9.10;;;8.20;;
3337;SDS011;1682;49.286;10.788;2023-11-19T02:08:21;11.40;;;8.33;;
3337;SDS011;1682;49.286;10.788;2023-11-19T02:10:49;8.50;;;7.57;;
3337;SDS011;1682;49.286;10.788;2023-11-19T02:13:17;8.27;;;7.47;;
3337;SDS011;1682;49.286;10.788;2023-11-19T02:15:44;9.80;;;7.10;;
3337;SDS011;1682;49.286;10.788;2023-11-19T02:18:19;7.70;;;6.70;;
3337;SDS011;1682;49.286;10.788;2023-11-19T02:20:47;13.23;;;8.77;;
3337;SDS011;1682;49.286;10.788;2023-11-19T02:23:15;14.60;;;7.33;;
3337;SDS011;1682;49.286;10.788;2023-11-19T02:25:42;11.13;;;7.87;;
3337;SDS011;1682;49.286;10.788;2023-11-19T02:28:11;11.20;;;8.50;;
3337;SDS011;1682;49.286;10.788;2023-11-19T02:30:39;11.87;;;8.70;;
3337;SDS011;1682;49.286;10.788;2023-11-19T02:33:06;13.30;;;7.87;;
3337;SDS011;1682;49.286;10.788;2023-11-19T02:35:33;12.80;;;8.73;;
3337;SDS011;1682;49.286;10.788;2023-11-19T02:38:01;9.90;;;8.33;;
3337;SDS011;1682;49.286;10.788;2023-11-19T02:40:29;10.53;;;7.70;;
3337;SDS011;1682;49.286;10.788;2023-11-19T02:42:56;10.47;;;8.40;;
3337;SDS011;1682;49.286;10.788;2023-11-19T02:45:24;9.80;;;7.50;;
3337;SDS011;1682;49.286;10.788;2023-11-19T02:47:52;13.17;;;9.03;;
3337;SDS011;1682;49.286;10.788;2023-11-19T02:50:20;9.13;;;7.20;;
3337;SDS011;1682;49.286;10.788;2023-11-19T02:52:51;9.70;;;6.60;;
3337;SDS011;1682;49.286;10.788;2023-11-19T02:55:18;9.53;;;8.37;;
3337;SDS011;1682;49.286;10.788;2023-11-19T02:57:46;10.00;;;8.37;;
3337;SDS011;1682;49.286;10.788;2023-11-19T03:00:15;11.80;;;8.40;;
3337;SDS011;1682;49.286;10.788;2023-11-19T03:02:44;11.17;;;8.30;;
3337;SDS011;1682;49.286;10.788;2023-11-19T03:05:13;9.13;;;7.90;;
3337;SDS011;1682;49.286;10.788;2023-11-19T03:07:40;7.80;;;6.80;;
3337;SDS011;1682;49.286;10.788;2023-11-19T03:10:09;9.23;;;6.60;;
3337;SDS011;1682;49.286;10.788;2023-11-19T03:12:38;10.10;;;6.90;;
3337;SDS011;1682;49.286;10.788;2023-11-19T03:15:06;9.97;;;8.50;;
3337;SDS011;1682;49.286;10.788;2023-11-19T03:17:35;8.23;;;7.10;;
3337;SDS011;1682;49.286;10.788;2023-11-19T03:20:04;9.17;;;8.03;;
3337;SDS011;1682;49.286;10.788;2023-11-19T03:22:34;9.53;;;6.70;;
3337;SDS011;1682;49.286;10.788;2023-11-19T03:25:01;9.10;;;7.70;;
3337;SDS011;1682;49.286;10.788;2023-11-19T03:27:29;9.80;;;7.33;;
3337;SDS011;1682;49.286;10.788;2023-11-19T03:29:56;6.77;;;6.17;;
3337;SDS011;1682;49.286;10.788;2023-11-19T03:32:23;7.67;;;6.50;;
3337;SDS011;1682;49.286;10.788;2023-11-19T03:34:50;18.93;;;8.43;;
3337;SDS011;1682;49.286;10.788;2023-11-19T03:37:19;9.20;;;6.60;;
3337;SDS011;1682;49.286;10.788;2023-11-19T03:39:46;9.67;;;7.50;;
3337;SDS011;1682;49.286;10.788;2023-11-19T03:42:13;8.20;;;6.43;;
3337;SDS011;1682;49.286;10.788;2023-11-19T03:44:40;7.73;;;6.90;;
3337;SDS011;1682;49.286;10.788;2023-11-19T03:47:07;8.60;;;6.20;;
3337;SDS011;1682;49.286;10.788;2023-11-19T03:49:35;8.23;;;7.40;;
3337;SDS011;1682;49.286;10.788;2023-11-19T03:52:02;8.80;;;7.60;;
3337;SDS011;1682;49.286;10.788;2023-11-19T03:54:32;7.73;;;6.87;;
3337;SDS011;1682;49.286;10.788;2023-11-19T03:57:00;6.60;;;5.80;;
3337;SDS011;1682;49.286;10.788;2023-11-19T03:59:28;11.33;;;7.57;;
3337;SDS011;1682;49.286;10.788;2023-11-19T04:01:55;7.20;;;6.17;;
3337;SDS011;1682;49.286;10.788;2023-11-19T04:04:25;5.70;;;5.00;;
3337;SDS011;1682;49.286;10.788;2023-11-19T04:06:53;6.03;;;5.47;;
3337;SDS011;1682;49.286;10.788;2023-11-19T04:09:20;6.33;;;5.13;;
3337;SDS011;1682;49.286;10.788;2023-11-19T04:11:48;8.00;;;5.47;;
3337;SDS011;1682;49.286;10.788;2023-11-19T04:14:16;4.43;;;4.03;;
3337;SDS011;1682;49.286;10.788;2023-11-19T04:16:43;5.13;;;4.63;;
3337;SDS011;1682;49.286;10.788;2023-11-19T04:19:11;5.10;;;4.53;;
3337;SDS011;1682;49.286;10.788;2023-11-19T04:21:39;5.67;;;4.50;;
3337;SDS011;1682;49.286;10.788;2023-11-19T04:24:07;5.27;;;4.77;;
3337;SDS011;1682;49.286;10.788;2023-11-19T04:26:39;5.00;;;4.53;;
3337;SDS011;1682;49.286;10.788;2023-11-19T04:29:08;4.60;;;4.20;;
3337;SDS011;1682;49.286;10.788;2023-11-19T04:31:36;4.60;;;4.10;;
3337;SDS011;1682;49.286;10.788;2023-11-19T04:34:04;4.77;;;4.37;;
3337;SDS011;1682;49.286;10.788;2023-11-19T04:36:31;4.80;;;3.63;;
3337;SDS011;1682;49.286;10.788;2023-11-19T04:38:59;4.70;;;4.30;;
3337;SDS011;1682;49.286;10.788;2023-11-19T04:41:26;4.70;;;4.33;;
3337;SDS011;1682;49.286;10.788;2023-11-19T04:43:53;5.70;;;4.40;;
3337;SDS011;1682;49.286;10.788;2023-11-19T04:46:22;6.80;;;4.30;;
3337;SDS011;1682;49.286;10.788;2023-11-19T04:48:49;3.53;;;3.23;;
3337;SDS011;1682;49.286;10.788;2023-11-19T04:51:17;4.13;;;3.60;;
3337;SDS011;1682;49.286;10.788;2023-11-19T04:53:44;3.37;;;3.10;;
3337;SDS011;1682;49.286;10.788;2023-11-19T04:56:11;4.80;;;3.50;;
3337;SDS011;1682;49.286;10.788;2023-11-19T04:58:40;3.73;;;3.43;;
3337;SDS011;1682;49.286;10.788;2023-11-19T05:01:12;4.50;;;4.10;;
3337;SDS011;1682;49.286;10.788;2023-11-19T05:03:42;3.73;;;3.23;;
3337;SDS011;1682;49.286;10.788;2023-11-19T05:06:09;2.80;;;2.60;;
3337;SDS011;1682;49.286;10.788;2023-11-19T05:08:36;3.10;;;2.90;;
3337;SDS011;1682;49.286;10.788;2023-11-19T05:11:04;2.90;;;2.70;;
3337;SDS011;1682;49.286;10.788;2023-11-19T05:13:32;4.20;;;2.90;;
3337;SDS011;1682;49.286;10.788;2023-11-19T05:15:59;3.80;;;3.40;;
3337;SDS011;1682;49.286;10.788;2023-11-19T05:18:26;3.80;;;3.50;;
3337;SDS011;1682;49.286;10.788;2023-11-19T05:20:55;4.07;;;3.43;;
3337;SDS011;1682;49.286;10.788;2023-11-19T05:23:22;3.53;;;3.20;;
3337;SDS011;1682;49.286;10.788;2023-11-19T05:25:49;3.77;;;3.23;;
3337;SDS011;1682;49.286;10.788;2023-11-19T05:28:16;4.20;;;3.80;;
3337;SDS011;1682;49.286;10.788;2023-11-19T05:30:43;5.20;;;3.40;;
3337;SDS011;1682;49.286;10.788;2023-11-19T05:33:11;4.70;;;4.20;;
3337;SDS011;1682;49.286;10.788;2023-11-19T05:35:38;4.47;;;4.07;;
3337;SDS011;1682;49.286;10.788;2023-11-19T05:38:06;4.93;;;4.43;;
3337;SDS011;1682;49.286;10.788;2023-11-19T05:40:34;4.73;;;4.10;;
3337;SDS011;1682;49.286;10.788;2023-11-19T05:43:03;4.27;;;3.87;;
3337;SDS011;1682;49.286;10.788;2023-11-19T05:45:31;5.13;;;4.60;;
3337;SDS011;1682;49.286;10.788;2023-11-19T05:47:58;5.83;;;4.00;;
3337;SDS011;1682;49.286;10.788;2023-11-19T05:50:26;4.50;;;4.03;;
3337;SDS011;1682;49.286;10.788;2023-11-19T05:52:53;4.80;;;4.40;;
3337;SDS011;1682;49.286;10.788;2023-11-19T05:55:21;4.87;;;4.47;;
3337;SDS011;1682;49.286;10.788;2023-11-19T05:57:49;3.70;;;3.40;;
3337;SDS011;1682;49.286;10.788;2023-11-19T06:00:17;3.37;;;3.07;;
3337;SDS011;1682;49.286;10.788;2023-11-19T06:02:45;2.60;;;2.40;;
3337;SDS011;1682;49.286;10.788;2023-11-19T06:05:12;2.77;;;2.57;;
3337;SDS011;1682;49.286;10.788;2023-11-19T06:07:39;1.70;;;1.60;;
3337;SDS011;1682;49.286;10.788;2023-11-19T06:10:07;1.70;;;1.60;;
3337;SDS011;1682;49.286;10.788;2023-11-19T06:12:36;2.27;;;2.07;;
3337;SDS011;1682;49.286;10.788;2023-11-19T06:15:06;1.10;;;1.00;;
3337;SDS011;1682;49.286;10.788;2023-11-19T06:17:34;1.23;;;1.20;;
3337;SDS011;1682;49.286;10.788;2023-11-19T06:20:01;1.20;;;1.20;;
3337;SDS011;1682;49.286;10.788;2023-11-19T06:22:30;1.10;;;1.10;;
3337;SDS011;1682;49.286;10.788;2023-11-19T06:24:57;1.10;;;1.00;;
3337;SDS011;1682;49.286;10.788;2023-11-19T06:27:25;0.90;;;0.90;;
3337;SDS011;1682;49.286;10.788;2023-11-19T06:29:53;1.20;;;0.93;;
3337;SDS011;1682;49.286;10.788;2023-11-19T06:32:21;1.03;;;1.03;;
3337;SDS011;1682;49.286;10.788;2023-11-19T06:34:48;6.53;;;1.03;;
3337;SDS011;1682;49.286;10.788;2023-11-19T06:37:15;1.10;;;1.10;;
3337;SDS011;1682;49.286;10.788;2023-11-19T06:39:42;1.30;;;1.23;;
3337;SDS011;1682;49.286;10.788;2023-11-19T06:42:09;1.10;;;1.00;;
3337;SDS011;1682;49.286;10.788;2023-11-19T06:44:37;0.70;;;0.70;;
3337;SDS011;1682;49.286;10.788;2023-11-19T06:47:05;1.63;;;0.83;;
3337;SDS011;1682;49.286;10.788;2023-11-19T06:49:33;0.90;;;0.90;;
3337;SDS011;1682;49.286;10.788;2023-11-19T06:52:00;1.03;;;0.93;;
3337;SDS011;1682;49.286;10.788;2023-11-19T06:54:27;0.80;;;0.80;;
3337;SDS011;1682;49.286;10.788;2023-11-19T06:56:54;1.00;;;1.00;;
3337;SDS011;1682;49.286;10.788;2023-11-19T06:59:22;0.90;;;0.90;;
3337;SDS011;1682;49.286;10.788;2023-11-19T07:01:49;0.97;;;0.97;;
3337;SDS011;1682;49.286;10.788;2023-11-19T07:04:18;1.93;;;1.80;;
3337;SDS011;1682;49.286;10.788;2023-11-19T07:06:45;1.80;;;1.70;;
3337;SDS011;1682;49.286;10.788;2023-11-19T07:09:13;0.90;;;0.90;;
3337;SDS011;1682;49.286;10.788;2023-11-19T07:11:41;1.57;;;1.47;;
3337;SDS011;1682;49.286;10.788;2023-11-19T07:14:09;1.33;;;1.23;;
3337;SDS011;1682;49.286;10.788;2023-11-19T07:16:36;1.53;;;1.43;;
3337;SDS011;1682;49.286;10.788;2023-11-19T07:19:04;1.10;;;1.00;;
3337;SDS011;1682;49.286;10.788;2023-11-19T07:21:33;1.57;;;1.20;;
3337;SDS011;1682;49.286;10.788;2023-11-19T07:24:04;2.00;;;1.90;;
3337;SDS011;1682;49.286;10.788;2023-11-19T07:26:32;1.40;;;1.30;;
3337;SDS011;1682;49.286;10.788;2023-11-19T07:28:59;2.20;;;1.70;;
3337;SDS011;1682;49.286;10.788;2023-11-19T07:31:27;1.63;;;1.53;;
3337;SDS011;1682;49.286;10.788;2023-11-19T07:33:54;2.00;;;1.90;;
3337;SDS011;1682;49.286;10.788;2023-11-19T07:36:21;3.33;;;3.13;;
3337;SDS011;1682;49.286;10.788;2023-11-19T07:38:49;4.07;;;3.70;;
3337;SDS011;1682;49.286;10.788;2023-11-19T07:41:17;10.40;;;9.50;;
3337;SDS011;1682;49.286;10.788;2023-11-19T07:43:45;2.33;;;2.23;;
3337;SDS011;1682;49.286;10.788;2023-11-19T07:46:13;3.40;;;2.57;;
3337;SDS011;1682;49.286;10.788;2023-11-19T07:48:40;3.40;;;3.20;;
3337;SDS011;1682;49.286;10.788;2023-11-19T07:51:07;10.23;;;9.23;;
3337;SDS011;1682;49.286;10.788;2023-11-19T07:53:35;3.90;;;3.60;;
3337;SDS011;1682;49.286;10.788;2023-11-19T07:56:05;5.93;;;2.50;;
3337;SDS011;1682;49.286;10.788;2023-11-19T07:58:32;1.93;;;1.70;;
3337;SDS011;1682;49.286;10.788;2023-11-19T08:01:00;2.60;;;1.10;;
3337;SDS011;1682;49.286;10.788;2023-11-19T08:03:28;3.93;;;2.00;;
3337;SDS011;1682;49.286;10.788;2023-11-19T08:05:55;1.93;;;1.83;;
3337;SDS011;1682;49.286;10.788;2023-11-19T08:08:23;1.50;;;1.40;;
3337;SDS011;1682;49.286;10.788;2023-11-19T08:10:50;2.10;;;2.00;;
3337;SDS011;1682;49.286;10.788;2023-11-19T08:13:19;1.60;;;1.50;;
3337;SDS011;1682;49.286;10.788;2023-11-19T08:15:47;2.70;;;2.50;;
3337;SDS011;1682;49.286;10.788;2023-11-19T08:18:14;2.03;;;1.93;;
3337;SDS011;1682;49.286;10.788;2023-11-19T08:20:41;1.33;;;1.20;;
3337;SDS011;1682;49.286;10.788;2023-11-19T08:23:09;1.50;;;1.40;;
3337;SDS011;1682;49.286;10.788;2023-11-19T08:25:37;1.40;;;1.40;;
3337;SDS011;1682;49.286;10.788;2023-11-19T08:28:04;1.50;;;1.40;;
3337;SDS011;1682;49.286;10.788;2023-11-19T08:30:33;1.77;;;1.67;;
3337;SDS011;1682;49.286;10.788;2023-11-19T08:33:00;2.40;;;2.30;;
3337;SDS011;1682;49.286;10.788;2023-11-19T08:35:28;1.70;;;1.60;;
3337;SDS011;1682;49.286;10.788;2023-11-19T08:37:56;3.70;;;3.40;;
3337;SDS011;1682;49.286;10.788;2023-11-19T08:40:24;4.03;;;1.57;;
3337;SDS011;1682;49.286;10.788;2023-11-19T08:42:52;2.43;;;2.10;;
3337;SDS011;1682;49.286;10.788;2023-11-19T08:45:19;1.93;;;1.20;;
3337;SDS011;1682;49.286;10.788;2023-11-19T08:47:47;3.50;;;3.20;;
3337;SDS011;1682;49.286;10.788;2023-11-19T08:50:15;4.80;;;2.50;;
3337;SDS011;1682;49.286;10.788;2023-11-19T08:52:41;4.67;;;2.33;;
3337;SDS011;1682;49.286;10.788;2023-11-19T08:55:09;4.07;;;2.40;;
3337;SDS011;1682;49.286;10.788;2023-11-19T08:57:38;2.27;;;1.70;;
3337;SDS011;1682;49.286;10.788;2023-11-19T09:00:06;1.47;;;1.37;;
3337;SDS011;1682;49.286;10.788;2023-11-19T09:02:33;3.43;;;1.70;;
3337;SDS011;1682;49.286;10.788;2023-11-19T09:05:03;2.53;;;1.87;;
3337;SDS011;1682;49.286;10.788;2023-11-19T09:07:32;2.67;;;2.47;;
3337;SDS011;1682;49.286;10.788;2023-11-19T09:09:59;2.90;;;1.97;;
3337;SDS011;1682;49.286;10.788;2023-11-19T09:12:27;2.00;;;1.90;;
3337;SDS011;1682;49.286;10.788;2023-11-19T09:14:54;3.37;;;2.33;;
3337;SDS011;1682;49.286;10.788;2023-11-19T09:17:21;4.67;;;2.77;;
3337;SDS011;1682;49.286;10.788;2023-11-19T09:19:48;3.30;;;2.40;;
3337;SDS011;1682;49.286;10.788;2023-11-19T09:22:17;4.83;;;3.40;;
3337;SDS011;1682;49.286;10.788;2023-11-19T09:24:44;5.50;;;2.50;;
3337;SDS011;1682;49.286;10.788;2023-11-19T09:27:13;3.10;;;2.20;;
3337;SDS011;1682;49.286;10.788;2023-11-19T09:29:40;3.00;;;1.80;;
3337;SDS011;1682;49.286;10.788;2023-11-19T09:32:08;1.80;;;1.70;;
3337;SDS011;1682;49.286;10.788;2023-11-19T09:34:35;9.00;;;2.20;;
3337;SDS011;1682;49.286;10.788;2023-11-19T09:37:03;3.87;;;2.10;;
3337;SDS011;1682;49.286;10.788;2023-11-19T09:39:31;3.30;;;1.30;;
3337;SDS011;1682;49.286;10.788;2023-11-19T09:41:58;2.67;;;1.50;;
3337;SDS011;1682;49.286;10.788;2023-11-19T09:44:26;2.40;;;2.20;;
3337;SDS011;1682;49.286;10.788;2023-11-19T09:46:53;3.93;;;2.20;;
3337;SDS011;1682;49.286;10.788;2023-11-19T09:49:21;7.40;;;1.80;;
3337;SDS011;1682;49.286;10.788;2023-11-19T09:51:49;2.60;;;2.07;;
3337;SDS011;1682;49.286;10.788;2023-11-19T09:54:16;3.17;;;1.87;;
3337;SDS011;1682;49.286;10.788;2023-11-19T09:56:45;2.93;;;1.13;;
3337;SDS011;1682;49.286;10.788;2023-11-19T09:59:13;1.00;;;0.93;;
3337;SDS011;1682;49.286;10.788;2023-11-19T10:01:40;1.00;;;1.00;;
3337;SDS011;1682;49.286;10.788;2023-11-19T10:04:08;1.20;;;1.20;;
3337;SDS011;1682;49.286;10.788;2023-11-19T10:06:35;2.47;;;1.80;;
3337;SDS011;1682;49.286;10.788;2023-11-19T10:09:03;2.03;;;1.23;;
3337;SDS011;1682;49.286;10.788;2023-11-19T10:11:30;9.00;;;4.10;;
3337;SDS011;1682;49.286;10.788;2023-11-19T10:13:59;4.40;;;1.80;;
3337;SDS011;1682;49.286;10.788;2023-11-19T10:16:28;2.93;;;1.50;;
3337;SDS011;1682;49.286;10.788;2023-11-19T10:18:56;1.50;;;1.40;;
3337;SDS011;1682;49.286;10.788;2023-11-19T10:21:24;2.60;;;0.93;;
3337;SDS011;1682;49.286;10.788;2023-11-19T10:23:53;2.33;;;2.13;;
3337;SDS011;1682;49.286;10.788;2023-11-19T10:26:22;1.40;;;1.23;;
3337;SDS011;1682;49.286;10.788;2023-11-19T10:28:49;1.20;;;1.20;;
3337;SDS011;1682;49.286;10.788;2023-11-19T10:31:19;2.13;;;1.07;;
3337;SDS011;1682;49.286;10.788;2023-11-19T10:33:49;5.03;;;1.10;;
3337;SDS011;1682;49.286;10.788;2023-11-19T10:36:17;3.37;;;1.47;;
3337;SDS011;1682;49.286;10.788;2023-11-19T10:38:51;2.93;;;1.40;;
3337;SDS011;1682;49.286;10.788;2023-11-19T10:41:28;1.53;;;1.43;;
3337;SDS011;1682;49.286;10.788;2023-11-19T10:43:56;1.73;;;1.20;;
3337;SDS011;1682;49.286;10.788;2023-11-19T10:46:36;1.97;;;1.27;;
3337;SDS011;1682;49.286;10.788;2023-11-19T10:49:03;2.00;;;1.80;;
3337;SDS011;1682;49.286;10.788;2023-11-19T10:51:31;3.17;;;1.57;;
3337;SDS011;1682;49.286;10.788;2023-11-19T10:54:02;1.40;;;1.30;;
3337;SDS011;1682;49.286;10.788;2023-11-19T10:56:30;5.03;;;1.90;;
3337;SDS011;1682;49.286;10.788;2023-11-19T10:58:59;1.60;;;1.50;;
3337;SDS011;1682;49.286;10.788;2023-11-19T11:01:32;1.77;;;1.67;;
3337;SDS011;1682;49.286;10.788;2023-11-19T11:04:03;2.07;;;1.53;;
3337;SDS011;1682;49.286;10.788;2023-11-19T11:06:31;3.10;;;1.43;;
3337;SDS011;1682;49.286;10.788;2023-11-19T11:09:01;3.70;;;1.50;;
3337;SDS011;1682;49.286;10.788;2023-11-19T11:11:29;3.83;;;3.10;;
3337;SDS011;1682;49.286;10.788;2023-11-19T11:13:56;1.50;;;1.33;;
3337;SDS011;1682;49.286;10.788;2023-11-19T11:16:26;2.87;;;1.80;;
3337;SDS011;1682;49.286;10.788;2023-11-19T11:18:54;2.70;;;1.77;;
3337;SDS011;1682;49.286;10.788;2023-11-19T11:21:22;1.50;;;1.40;;
3337;SDS011;1682;49.286;10.788;2023-11-19T11:26:52;1.37;;;1.10;;
3337;SDS011;1682;49.286;10.788;2023-11-19T11:29:24;1.47;;;1.30;;
3337;SDS011;1682;49.286;10.788;2023-11-19T11:31:55;1.53;;;1.43;;
3337;SDS011;1682;49.286;10.788;2023-11-19T11:37:10;2.07;;;1.67;;
3337;SDS011;1682;49.286;10.788;2023-11-19T11:39:40;3.83;;;2.60;;
3337;SDS011;1682;49.286;10.788;2023-11-19T11:44:59;1.17;;;1.00;;
3337;SDS011;1682;49.286;10.788;2023-11-19T11:47:38;1.17;;;1.17;;
3337;SDS011;1682;49.286;10.788;2023-11-19T11:50:26;2.07;;;0.80;;
3337;SDS011;1682;49.286;10.788;2023-11-19T11:55:53;1.83;;;1.00;;
3337;SDS011;1682;49.286;10.788;2023-11-19T11:58:21;1.13;;;1.03;;
3337;SDS011;1682;49.286;10.788;2023-11-19T12:00:52;1.27;;;0.90;;
3337;SDS011;1682;49.286;10.788;2023-11-19T12:03:20;1.53;;;1.17;;
3337;SDS011;1682;49.286;10.788;2023-11-19T12:05:48;1.60;;;1.50;;
3337;SDS011;1682;49.286;10.788;2023-11-19T12:08:18;1.03;;;0.93;;
3337;SDS011;1682;49.286;10.788;2023-11-19T12:10:48;5.40;;;1.33;;
3337;SDS011;1682;49.286;10.788;2023-11-19T12:13:17;0.87;;;0.87;;
3337;SDS011;1682;49.286;10.788;2023-11-19T12:18:32;2.10;;;1.27;;
3337;SDS011;1682;49.286;10.788;2023-11-19T12:21:00;3.63;;;1.60;;
3337;SDS011;1682;49.286;10.788;2023-11-19T12:23:28;0.93;;;0.80;;
3337;SDS011;1682;49.286;10.788;2023-11-19T12:25:57;1.30;;;1.10;;
3337;SDS011;1682;49.286;10.788;2023-11-19T12:28:24;0.97;;;0.77;;
3337;SDS011;1682;49.286;10.788;2023-11-19T12:30:52;2.53;;;1.07;;
3337;SDS011;1682;49.286;10.788;2023-11-19T12:33:20;1.20;;;1.10;;
3337;SDS011;1682;49.286;10.788;2023-11-19T12:35:47;0.77;;;0.77;;
3337;SDS011;1682;49.286;10.788;2023-11-19T12:38:18;1.23;;;1.03;;
3337;SDS011;1682;49.286;10.788;2023-11-19T12:40:46;3.93;;;1.40;;
3337;SDS011;1682;49.286;10.788;2023-11-19T12:43:22;1.20;;;0.90;;
3337;SDS011;1682;49.286;10.788;2023-11-19T12:45:49;3.17;;;1.20;;
3337;SDS011;1682;49.286;10.788;2023-11-19T12:48:16;2.60;;;0.90;;
3337;SDS011;1682;49.286;10.788;2023-11-19T12:50:50;1.60;;;1.50;;
3337;SDS011;1682;49.286;10.788;2023-11-19T12:53:17;2.90;;;1.60;;
3337;SDS011;1682;49.286;10.788;2023-11-19T12:55:44;1.30;;;1.20;;
3337;SDS011;1682;49.286;10.788;2023-11-19T13:01:00;1.77;;;1.00;;
3337;SDS011;1682;49.286;10.788;2023-11-19T13:03:30;1.20;;;1.10;;
3337;SDS011;1682;49.286;10.788;2023-11-19T13:06:01;3.50;;;1.20;;
3337;SDS011;1682;49.286;10.788;2023-11-19T13:08:29;3.33;;;2.30;;
3337;SDS011;1682;49.286;10.788;2023-11-19T13:11:03;1.77;;;1.00;;
3337;SDS011;1682;49.286;10.788;2023-11-19T13:13:31;1.90;;;1.70;;
3337;SDS011;1682;49.286;10.788;2023-11-19T13:16:03;2.13;;;1.57;;
3337;SDS011;1682;49.286;10.788;2023-11-19T13:18:31;5.90;;;2.10;;
3337;SDS011;1682;49.286;10.788;2023-11-19T13:20:58;2.30;;;2.10;;
3337;SDS011;1682;49.286;10.788;2023-11-19T13:23:25;2.30;;;1.80;;
3337;SDS011;1682;49.286;10.788;2023-11-19T13:25:52;3.53;;;2.60;;
3337;SDS011;1682;49.286;10.788;2023-11-19T13:28:20;4.80;;;3.33;;
3337;SDS011;1682;49.286;10.788;2023-11-19T13:30:47;2.40;;;2.17;;
3337;SDS011;1682;49.286;10.788;2023-11-19T13:33:16;2.23;;;1.80;;
3337;SDS011;1682;49.286;10.788;2023-11-19T13:35:43;1.67;;;1.50;;
3337;SDS011;1682;49.286;10.788;2023-11-19T13:38:10;2.23;;;1.87;;
3337;SDS011;1682;49.286;10.788;2023-11-19T13:40:38;2.73;;;2.30;;
3337;SDS011;1682;49.286;10.788;2023-11-19T13:43:05;2.43;;;1.63;;
3337;SDS011;1682;49.286;10.788;2023-11-19T13:45:32;5.00;;;1.80;;
3337;SDS011;1682;49.286;10.788;2023-11-19T13:48:00;1.53;;;1.27;;
3337;SDS011;1682;49.286;10.788;2023-11-19T13:50:28;2.23;;;1.40;;
3337;SDS011;1682;49.286;10.788;2023-11-19T13:52:55;5.60;;;1.27;;
3337;SDS011;1682;49.286;10.788;2023-11-19T13:55:23;1.37;;;1.20;;
3337;SDS011;1682;49.286;10.788;2023-11-19T13:57:51;1.23;;;0.80;;
3337;SDS011;1682;49.286;10.788;2023-11-19T14:00:18;2.80;;;2.53;;
3337;SDS011;1682;49.286;10.788;2023-11-19T14:02:48;2.10;;;1.80;;
3337;SDS011;1682;49.286;10.788;2023-11-19T14:05:15;1.73;;;1.10;;
3337;SDS011;1682;49.286;10.788;2023-11-19T14:07:44;1.60;;;1.47;;
3337;SDS011;1682;49.286;10.788;2023-11-19T14:10:13;2.57;;;2.37;;
3337;SDS011;1682;49.286;10.788;2023-11-19T14:12:41;1.70;;;1.60;;
3337;SDS011;1682;49.286;10.788;2023-11-19T14:15:09;3.37;;;2.00;;
3337;SDS011;1682;49.286;10.788;2023-11-19T14:17:37;4.63;;;3.70;;
3337;SDS011;1682;49.286;10.788;2023-11-19T14:20:05;2.30;;;2.20;;
3337;SDS011;1682;49.286;10.788;2023-11-19T14:22:37;1.93;;;1.73;;
3337;SDS011;1682;49.286;10.788;2023-11-19T14:25:07;2.87;;;2.53;;
3337;SDS011;1682;49.286;10.788;2023-11-19T14:27:35;2.37;;;1.53;;
3337;SDS011;1682;49.286;10.788;2023-11-19T14:30:04;2.07;;;1.97;;
3337;SDS011;1682;49.286;10.788;2023-11-19T14:32:32;1.20;;;1.20;;
3337;SDS011;1682;49.286;10.788;2023-11-19T14:34:59;2.60;;;1.27;;
3337;SDS011;1682;49.286;10.788;2023-11-19T14:37:26;4.60;;;2.20;;
3337;SDS011;1682;49.286;10.788;2023-11-19T14:39:53;1.60;;;1.20;;
3337;SDS011;1682;49.286;10.788;2023-11-19T14:42:22;1.90;;;1.73;;
3337;SDS011;1682;49.286;10.788;2023-11-19T14:44:50;3.53;;;2.30;;
3337;SDS011;1682;49.286;10.788;2023-11-19T14:47:18;4.63;;;3.87;;
3337;SDS011;1682;49.286;10.788;2023-11-19T14:49:45;1.23;;;1.13;;
3337;SDS011;1682;49.286;10.788;2023-11-19T14:52:12;4.30;;;1.67;;
3337;SDS011;1682;49.286;10.788;2023-11-19T14:54:39;6.77;;;1.87;;
3337;SDS011;1682;49.286;10.788;2023-11-19T14:57:07;1.40;;;1.30;;
3337;SDS011;1682;49.286;10.788;2023-11-19T14:59:35;1.20;;;1.10;;
3337;SDS011;1682;49.286;10.788;2023-11-19T15:02:03;1.00;;;1.00;;
3337;SDS011;1682;49.286;10.788;2023-11-19T15:04:30;3.67;;;2.20;;
3337;SDS011;1682;49.286;10.788;2023-11-19T15:06:58;2.20;;;1.90;;
3337;SDS011;1682;49.286;10.788;2023-11-19T15:09:25;1.57;;;1.10;;
3337;SDS011;1682;49.286;10.788;2023-11-19T15:11:53;1.20;;;1.20;;
3337;SDS011;1682;49.286;10.788;2023-11-19T15:14:20;1.07;;;1.00;;
3337;SDS011;1682;49.286;10.788;2023-11-19T15:16:49;1.77;;;1.20;;
3337;SDS011;1682;49.286;10.788;2023-11-19T15:19:16;1.20;;;1.10;;
3337;SDS011;1682;49.286;10.788;2023-11-19T15:21:45;1.87;;;1.00;;
3337;SDS011;1682;49.286;10.788;2023-11-19T15:24:13;1.30;;;1.20;;